sensor_id;sensor_type;location;lat;lon;timestamp;pressure;altitude;pressure_sealevel;temperature;humidity
21821;BME280;11073;48.586;12.066;2022-11-04T00:00:20;95388.16;;;11.93;74.05
21821;BME280;11073;48.586;12.066;2022-11-04T00:02:57;95394.16;;;11.95;74.09
21821;BME280;11073;48.586;12.066;2022-11-04T00:05:26;95386.25;;;11.99;74.04
21821;BME280;11073;48.586;12.066;2022-11-04T00:07:55;95394.69;;;12.02;74.31
21821;BME280;11073;48.586;12.066;2022-11-04T00:10:42;95406.88;;;12.00;73.95
21821;BME280;11073;48.586;12.066;2022-11-04T00:13:27;95403.88;;;12.01;74.36
21821;BME280;11073;48.586;12.066;2022-11-04T00:15:59;95410.38;;;12.00;74.13
21821;BME280;11073;48.586;12.066;2022-11-04T00:19:02;95404.16;;;12.05;74.15
21821;BME280;11073;48.586;12.066;2022-11-04T00:21:31;95407.69;;;12.05;74.10
21821;BME280;11073;48.586;12.066;2022-11-04T00:24:18;95430.44;;;12.09;74.01
21821;BME280;11073;48.586;12.066;2022-11-04T00:27:04;95421.78;;;12.12;74.29
21821;BME280;11073;48.586;12.066;2022-11-04T00:29:51;95441.59;;;12.13;73.93
21821;BME280;11073;48.586;12.066;2022-11-04T00:32:19;95436.44;;;12.06;73.98
21821;BME280;11073;48.586;12.066;2022-11-04T00:35:08;95447.03;;;12.03;74.22
21821;BME280;11073;48.586;12.066;2022-11-04T00:37:38;95447.28;;;12.01;73.87
21821;BME280;11073;48.586;12.066;2022-11-04T00:40:10;95444.59;;;11.96;73.91
21821;BME280;11073;48.586;12.066;2022-11-04T00:42:39;95449.19;;;11.96;74.06
21821;BME280;11073;48.586;12.066;2022-11-04T00:45:08;95458.66;;;11.93;74.18
21821;BME280;11073;48.586;12.066;2022-11-04T00:47:37;95468.97;;;11.91;73.99
21821;BME280;11073;48.586;12.066;2022-11-04T00:50:08;95474.41;;;11.91;73.84
21821;BME280;11073;48.586;12.066;2022-11-04T00:52:37;95480.91;;;11.90;73.83
21821;BME280;11073;48.586;12.066;2022-11-04T00:55:06;95480.91;;;11.85;73.93
21821;BME280;11073;48.586;12.066;2022-11-04T00:57:35;95492.53;;;11.80;73.85
21821;BME280;11073;48.586;12.066;2022-11-04T01:00:06;95492.78;;;11.79;73.82
21821;BME280;11073;48.586;12.066;2022-11-04T01:02:35;95502.28;;;11.76;73.82
21821;BME280;11073;48.586;12.066;2022-11-04T01:05:04;95497.69;;;11.77;73.71
21821;BME280;11073;48.586;12.066;2022-11-04T01:07:35;95491.97;;;11.78;74.09
21821;BME280;11073;48.586;12.066;2022-11-04T01:10:10;95495.78;;;11.77;73.75
21821;BME280;11073;48.586;12.066;2022-11-04T01:12:39;95497.94;;;11.75;73.57
21821;BME280;11073;48.586;12.066;2022-11-04T01:15:09;95493.63;;;11.74;73.54
21821;BME280;11073;48.586;12.066;2022-11-04T01:17:38;95508.50;;;11.72;73.59
21821;BME280;11073;48.586;12.066;2022-11-04T01:20:07;95494.69;;;11.68;73.70
21821;BME280;11073;48.586;12.066;2022-11-04T01:22:38;95511.78;;;11.74;73.70
21821;BME280;11073;48.586;12.066;2022-11-04T01:25:07;95515.31;;;11.74;73.33
21821;BME280;11073;48.586;12.066;2022-11-04T01:27:36;95522.06;;;11.72;73.42
21821;BME280;11073;48.586;12.066;2022-11-04T01:30:06;95521.53;;;11.70;73.37
21821;BME280;11073;48.586;12.066;2022-11-04T01:32:36;95531.81;;;11.68;73.28
21821;BME280;11073;48.586;12.066;2022-11-04T01:35:05;95533.97;;;11.66;73.18
21821;BME280;11073;48.586;12.066;2022-11-04T01:37:34;95550.78;;;11.63;73.30
21821;BME280;11073;48.586;12.066;2022-11-04T01:40:05;95544.00;;;11.60;73.49
21821;BME280;11073;48.586;12.066;2022-11-04T01:42:34;95540.19;;;11.56;73.69
21821;BME280;11073;48.586;12.066;2022-11-04T01:45:04;95542.06;;;11.55;73.84
21821;BME280;11073;48.586;12.066;2022-11-04T01:47:42;95551.56;;;11.53;73.85
21821;BME280;11073;48.586;12.066;2022-11-04T01:50:13;95543.41;;;11.48;74.05
21821;BME280;11073;48.586;12.066;2022-11-04T01:52:49;95548.84;;;11.53;74.44
21821;BME280;11073;48.586;12.066;2022-11-04T01:55:21;95564.03;;;11.54;74.61
21821;BME280;11073;48.586;12.066;2022-11-04T01:57:54;95574.56;;;11.50;74.68
21821;BME280;11073;48.586;12.066;2022-11-04T02:00:24;95562.91;;;11.50;74.65
21821;BME280;11073;48.586;12.066;2022-11-04T02:02:57;95565.91;;;11.48;74.66
21821;BME280;11073;48.586;12.066;2022-11-04T02:05:28;95568.59;;;11.43;74.88
21821;BME280;11073;48.586;12.066;2022-11-04T02:07:58;95560.75;;;11.47;75.27
21821;BME280;11073;48.586;12.066;2022-11-04T02:10:31;95552.34;;;11.48;75.10
21821;BME280;11073;48.586;12.066;2022-11-04T02:13:02;95558.03;;;11.47;75.21
21821;BME280;11073;48.586;12.066;2022-11-04T02:15:37;95556.94;;;11.43;75.38
21821;BME280;11073;48.586;12.066;2022-11-04T02:18:16;95551.50;;;11.43;75.41
21821;BME280;11073;48.586;12.066;2022-11-04T02:21:04;95556.94;;;11.43;75.58
21821;BME280;11073;48.586;12.066;2022-11-04T02:23:58;95547.72;;;11.44;75.38
21821;BME280;11073;48.586;12.066;2022-11-04T02:29:47;95542.28;;;11.44;75.86
21821;BME280;11073;48.586;12.066;2022-11-04T02:32:26;95533.34;;;11.43;75.83
21821;BME280;11073;48.586;12.066;2022-11-04T02:35:02;95535.53;;;11.46;75.98
21821;BME280;11073;48.586;12.066;2022-11-04T02:37:36;95545.31;;;11.47;75.81
21821;BME280;11073;48.586;12.066;2022-11-04T02:40:17;95534.19;;;11.49;75.73
21821;BME280;11073;48.586;12.066;2022-11-04T02:42:53;95532.28;;;11.49;75.95
21821;BME280;11073;48.586;12.066;2022-11-04T02:45:32;95525.28;;;11.53;76.11
21821;BME280;11073;48.586;12.066;2022-11-04T02:48:07;95513.88;;;11.56;75.93
21821;BME280;11073;48.586;12.066;2022-11-04T02:50:40;95520.69;;;11.59;75.84
21821;BME280;11073;48.586;12.066;2022-11-04T02:53:15;95531.78;;;11.63;75.92
21821;BME280;11073;48.586;12.066;2022-11-04T02:55:49;95543.72;;;11.62;75.97
21821;BME280;11073;48.586;12.066;2022-11-04T02:58:24;95539.94;;;11.63;75.80
21821;BME280;11073;48.586;12.066;2022-11-04T03:00:56;95545.34;;;11.63;75.93
21821;BME280;11073;48.586;12.066;2022-11-04T03:03:30;95547.78;;;11.64;75.88
21821;BME280;11073;48.586;12.066;2022-11-04T03:06:03;95545.06;;;11.64;75.62
21821;BME280;11073;48.586;12.066;2022-11-04T03:08:35;95542.66;;;11.63;75.59
21821;BME280;11073;48.586;12.066;2022-11-04T03:11:10;95548.59;;;11.65;75.78
21821;BME280;11073;48.586;12.066;2022-11-04T03:13:43;95555.66;;;11.66;75.63
21821;BME280;11073;48.586;12.066;2022-11-04T03:16:19;95537.50;;;11.61;75.84
21821;BME280;11073;48.586;12.066;2022-11-04T03:18:57;95541.28;;;11.65;75.62
21821;BME280;11073;48.586;12.066;2022-11-04T03:21:32;95542.09;;;11.60;75.69
21821;BME280;11073;48.586;12.066;2022-11-04T03:24:03;95543.19;;;11.65;75.59
21821;BME280;11073;48.586;12.066;2022-11-04T03:26:36;95551.31;;;11.65;75.69
21821;BME280;11073;48.586;12.066;2022-11-04T03:29:17;95561.63;;;11.63;75.65
21821;BME280;11073;48.586;12.066;2022-11-04T03:31:56;95551.03;;;11.61;75.63
21821;BME280;11073;48.586;12.066;2022-11-04T03:34:29;95552.94;;;11.60;76.07
21821;BME280;11073;48.586;12.066;2022-11-04T03:36:57;95549.66;;;11.58;76.00
21821;BME280;11073;48.586;12.066;2022-11-04T03:39:27;95554.81;;;11.55;75.63
21821;BME280;11073;48.586;12.066;2022-11-04T03:41:58;95546.16;;;11.53;75.96
21821;BME280;11073;48.586;12.066;2022-11-04T03:44:28;95561.06;;;11.60;75.88
21821;BME280;11073;48.586;12.066;2022-11-04T03:46:59;95561.34;;;11.59;75.93
21821;BME280;11073;48.586;12.066;2022-11-04T03:49:28;95566.78;;;11.59;75.92
21821;BME280;11073;48.586;12.066;2022-11-04T03:51:57;95563.50;;;11.62;75.86
21821;BME280;11073;48.586;12.066;2022-11-04T03:54:26;95561.06;;;11.55;75.72
21821;BME280;11073;48.586;12.066;2022-11-04T03:57:18;95552.34;;;11.48;75.71
21821;BME280;11073;48.586;12.066;2022-11-04T04:00:13;95569.72;;;11.52;75.79
21821;BME280;11073;48.586;12.066;2022-11-04T04:02:59;95564.00;;;11.49;75.77
21821;BME280;11073;48.586;12.066;2022-11-04T04:05:32;95564.53;;;11.51;75.64
21821;BME280;11073;48.586;12.066;2022-11-04T04:08:11;95559.13;;;11.51;75.84
21821;BME280;11073;48.586;12.066;2022-11-04T04:10:48;95561.59;;;11.52;75.60
21821;BME280;11073;48.586;12.066;2022-11-04T04:13:26;95554.00;;;11.54;75.67
21821;BME280;11073;48.586;12.066;2022-11-04T04:16:05;95563.22;;;11.53;75.63
21821;BME280;11073;48.586;12.066;2022-11-04T04:18:41;95555.38;;;11.52;75.82
21821;BME280;11073;48.586;12.066;2022-11-04T04:21:14;95549.09;;;11.51;75.75
21821;BME280;11073;48.586;12.066;2022-11-04T04:23:45;95543.97;;;11.55;75.46
21821;BME280;11073;48.586;12.066;2022-11-04T04:26:36;95540.72;;;11.58;75.37
21821;BME280;11073;48.586;12.066;2022-11-04T04:29:24;95534.75;;;11.56;75.50
21821;BME280;11073;48.586;12.066;2022-11-04T04:31:56;95543.44;;;11.63;75.38
21821;BME280;11073;48.586;12.066;2022-11-04T04:34:30;95535.03;;;11.65;75.20
21821;BME280;11073;48.586;12.066;2022-11-04T04:37:02;95526.41;;;11.68;75.52
21821;BME280;11073;48.586;12.066;2022-11-04T04:39:37;95520.69;;;11.69;75.26
21821;BME280;11073;48.586;12.066;2022-11-04T04:42:37;95525.84;;;11.71;75.38
21821;BME280;11073;48.586;12.066;2022-11-04T04:45:30;95520.44;;;11.71;75.31
21821;BME280;11073;48.586;12.066;2022-11-04T04:47:59;95518.81;;;11.70;75.19
21821;BME280;11073;48.586;12.066;2022-11-04T04:50:32;95524.22;;;11.70;74.84
21821;BME280;11073;48.586;12.066;2022-11-04T04:53:03;95525.84;;;11.71;74.75
21821;BME280;11073;48.586;12.066;2022-11-04T04:55:32;95527.75;;;11.70;74.77
21821;BME280;11073;48.586;12.066;2022-11-04T04:58:08;95513.69;;;11.73;74.45
21821;BME280;11073;48.586;12.066;2022-11-04T05:00:37;95517.75;;;11.76;74.68
21821;BME280;11073;48.586;12.066;2022-11-04T05:03:06;95506.09;;;11.75;74.59
21821;BME280;11073;48.586;12.066;2022-11-04T05:05:36;95503.91;;;11.77;74.58
21821;BME280;11073;48.586;12.066;2022-11-04T05:08:06;95506.63;;;11.77;74.21
21821;BME280;11073;48.586;12.066;2022-11-04T05:10:35;95518.56;;;11.76;74.26
21821;BME280;11073;48.586;12.066;2022-11-04T05:13:04;95534.53;;;11.78;74.12
21821;BME280;11073;48.586;12.066;2022-11-04T05:15:50;95551.06;;;11.71;73.83
21821;BME280;11073;48.586;12.066;2022-11-04T05:18:19;95549.19;;;11.67;73.99
21821;BME280;11073;48.586;12.066;2022-11-04T05:20:48;95553.47;;;11.57;73.85
21821;BME280;11073;48.586;12.066;2022-11-04T05:23:17;95550.22;;;11.55;74.19
21821;BME280;11073;48.586;12.066;2022-11-04T05:25:46;95546.16;;;11.53;74.08
21821;BME280;11073;48.586;12.066;2022-11-04T05:28:15;95550.75;;;11.52;74.02
21821;BME280;11073;48.586;12.066;2022-11-04T05:30:44;95542.06;;;11.50;74.11
21821;BME280;11073;48.586;12.066;2022-11-04T05:33:13;95561.03;;;11.45;74.11
21821;BME280;11073;48.586;12.066;2022-11-04T05:35:41;95549.06;;;11.41;74.14
21821;BME280;11073;48.586;12.066;2022-11-04T05:38:12;95556.66;;;11.39;73.87
21821;BME280;11073;48.586;12.066;2022-11-04T05:40:41;95550.69;;;11.37;73.96
21821;BME280;11073;48.586;12.066;2022-11-04T05:43:10;95553.34;;;11.27;73.92
21821;BME280;11073;48.586;12.066;2022-11-04T05:45:39;95549.56;;;11.23;73.98
21821;BME280;11073;48.586;12.066;2022-11-04T05:48:07;95554.44;;;11.26;73.88
21821;BME280;11073;48.586;12.066;2022-11-04T05:50:36;95547.13;;;11.26;74.09
21821;BME280;11073;48.586;12.066;2022-11-04T05:53:04;95544.69;;;11.25;73.94
21821;BME280;11073;48.586;12.066;2022-11-04T05:55:35;95547.66;;;11.23;73.54
21821;BME280;11073;48.586;12.066;2022-11-04T05:58:03;95540.88;;;11.26;73.50
21821;BME280;11073;48.586;12.066;2022-11-04T06:00:32;95537.59;;;11.19;73.53
21821;BME280;11073;48.586;12.066;2022-11-04T06:03:01;95539.22;;;11.20;73.27
21821;BME280;11073;48.586;12.066;2022-11-04T06:05:30;95545.72;;;11.19;73.30
21821;BME280;11073;48.586;12.066;2022-11-04T06:07:58;95558.50;;;11.23;73.18
21821;BME280;11073;48.586;12.066;2022-11-04T06:10:27;95566.63;;;11.23;72.91
21821;BME280;11073;48.586;12.066;2022-11-04T06:12:57;95565.53;;;11.24;73.20
21821;BME280;11073;48.586;12.066;2022-11-04T06:15:25;95562.56;;;11.26;73.01
21821;BME280;11073;48.586;12.066;2022-11-04T06:17:54;95556.03;;;11.22;72.78
21821;BME280;11073;48.586;12.066;2022-11-04T06:20:23;95560.91;;;11.20;73.09
21821;BME280;11073;48.586;12.066;2022-11-04T06:22:51;95570.66;;;11.16;72.79
21821;BME280;11073;48.586;12.066;2022-11-04T06:25:20;95570.66;;;11.16;72.94
21821;BME280;11073;48.586;12.066;2022-11-04T06:27:48;95570.59;;;11.11;72.67
21821;BME280;11073;48.586;12.066;2022-11-04T06:30:19;95575.22;;;11.10;72.86
21821;BME280;11073;48.586;12.066;2022-11-04T06:32:50;95577.88;;;11.05;72.58
21821;BME280;11073;48.586;12.066;2022-11-04T06:35:18;95579.50;;;11.01;72.77
21821;BME280;11073;48.586;12.066;2022-11-04T06:37:47;95574.91;;;11.01;72.84
21821;BME280;11073;48.586;12.066;2022-11-04T06:40:16;95584.38;;;11.04;72.93
21821;BME280;11073;48.586;12.066;2022-11-04T06:42:45;95572.69;;;10.98;72.71
21821;BME280;11073;48.586;12.066;2022-11-04T06:45:13;95590.03;;;10.97;72.84
21821;BME280;11073;48.586;12.066;2022-11-04T06:47:43;95588.34;;;10.91;72.73
21821;BME280;11073;48.586;12.066;2022-11-04T06:50:12;95601.63;;;10.88;72.53
21821;BME280;11073;48.586;12.066;2022-11-04T06:52:41;95604.81;;;10.85;72.93
21821;BME280;11073;48.586;12.066;2022-11-04T06:55:10;95608.34;;;10.80;73.09
21821;BME280;11073;48.586;12.066;2022-11-04T06:57:38;95599.63;;;10.78;73.07
21821;BME280;11073;48.586;12.066;2022-11-04T07:00:08;95593.06;;;10.69;73.03
21821;BME280;11073;48.586;12.066;2022-11-04T07:02:38;95596.00;;;10.62;73.26
21821;BME280;11073;48.586;12.066;2022-11-04T07:05:09;95589.50;;;10.58;73.40
21821;BME280;11073;48.586;12.066;2022-11-04T07:07:38;95578.88;;;10.52;73.33
21821;BME280;11073;48.586;12.066;2022-11-04T07:10:07;95572.88;;;10.44;73.30
21821;BME280;11073;48.586;12.066;2022-11-04T07:12:36;95542.47;;;10.32;73.28
21821;BME280;11073;48.586;12.066;2022-11-04T07:15:05;95556.91;;;10.48;73.31
21821;BME280;11073;48.586;12.066;2022-11-04T07:17:34;95549.84;;;10.42;73.02
21821;BME280;11073;48.586;12.066;2022-11-04T07:20:04;95548.44;;;10.34;72.96
21821;BME280;11073;48.586;12.066;2022-11-04T07:22:34;95550.06;;;10.35;72.93
21821;BME280;11073;48.586;12.066;2022-11-04T07:25:04;95557.66;;;10.38;73.14
21821;BME280;11073;48.586;12.066;2022-11-04T07:27:33;95583.38;;;10.41;72.85
21821;BME280;11073;48.586;12.066;2022-11-04T07:30:02;95592.63;;;10.45;72.83
21821;BME280;11073;48.586;12.066;2022-11-04T07:32:31;95571.53;;;10.47;72.81
21821;BME280;11073;48.586;12.066;2022-11-04T07:34:59;95577.25;;;10.51;72.85
21821;BME280;11073;48.586;12.066;2022-11-04T07:37:28;95585.38;;;10.56;73.04
21821;BME280;11073;48.586;12.066;2022-11-04T07:39:58;95587.03;;;10.57;72.91
21821;BME280;11073;48.586;12.066;2022-11-04T07:42:27;95586.78;;;10.58;72.48
21821;BME280;11073;48.586;12.066;2022-11-04T07:44:55;95595.72;;;10.59;72.71
21821;BME280;11073;48.586;12.066;2022-11-04T07:47:24;95602.75;;;10.60;72.64
21821;BME280;11073;48.586;12.066;2022-11-04T07:49:54;95610.88;;;10.60;72.67
21821;BME280;11073;48.586;12.066;2022-11-04T07:52:23;95620.06;;;10.59;72.59
21821;BME280;11073;48.586;12.066;2022-11-04T07:54:52;95623.84;;;10.58;72.36
21821;BME280;11073;48.586;12.066;2022-11-04T07:57:22;95640.09;;;10.58;72.52
21821;BME280;11073;48.586;12.066;2022-11-04T07:59:51;95651.16;;;10.56;72.68
21821;BME280;11073;48.586;12.066;2022-11-04T08:02:20;95656.84;;;10.55;72.41
21821;BME280;11073;48.586;12.066;2022-11-04T08:04:54;95658.47;;;10.56;72.60
21821;BME280;11073;48.586;12.066;2022-11-04T08:07:23;95639.50;;;10.51;72.51
21821;BME280;11073;48.586;12.066;2022-11-04T08:09:52;95636.00;;;10.55;72.96
21821;BME280;11073;48.586;12.066;2022-11-04T08:12:22;95647.38;;;10.57;72.73
21821;BME280;11073;48.586;12.066;2022-11-04T08:14:51;95645.50;;;10.58;72.84
21821;BME280;11073;48.586;12.066;2022-11-04T08:17:19;95638.69;;;10.55;73.11
21821;BME280;11073;48.586;12.066;2022-11-04T08:19:48;95644.13;;;10.55;73.16
21821;BME280;11073;48.586;12.066;2022-11-04T08:22:17;95641.16;;;10.57;73.11
21821;BME280;11073;48.586;12.066;2022-11-04T08:24:46;95621.44;;;10.61;73.10
21821;BME280;11073;48.586;12.066;2022-11-04T08:27:14;95616.34;;;10.65;73.21
21821;BME280;11073;48.586;12.066;2022-11-04T08:29:44;95610.00;;;10.54;73.39
21821;BME280;11073;48.586;12.066;2022-11-04T08:32:12;95615.16;;;10.56;73.60
21821;BME280;11073;48.586;12.066;2022-11-04T08:34:41;95597.28;;;10.55;73.56
21821;BME280;11073;48.586;12.066;2022-11-04T08:37:12;95603.56;;;10.60;73.53
21821;BME280;11073;48.586;12.066;2022-11-04T08:39:41;95598.09;;;10.55;73.61
21821;BME280;11073;48.586;12.066;2022-11-04T08:42:10;95590.31;;;10.59;73.64
21821;BME280;11073;48.586;12.066;2022-11-04T08:44:39;95588.16;;;10.61;73.71
21821;BME280;11073;48.586;12.066;2022-11-04T08:47:10;95588.41;;;10.59;73.31
21821;BME280;11073;48.586;12.066;2022-11-04T08:49:42;95576.25;;;10.62;73.39
21821;BME280;11073;48.586;12.066;2022-11-04T08:52:11;95578.47;;;10.70;73.87
21821;BME280;11073;48.586;12.066;2022-11-04T08:54:40;95585.00;;;10.74;73.33
21821;BME280;11073;48.586;12.066;2022-11-04T08:57:11;95597.72;;;10.73;73.60
21821;BME280;11073;48.586;12.066;2022-11-04T08:59:39;95585.81;;;10.74;73.46
21821;BME280;11073;48.586;12.066;2022-11-04T09:02:12;95577.97;;;10.78;73.54
21821;BME280;11073;48.586;12.066;2022-11-04T09:04:41;95569.34;;;10.81;73.31
21821;BME280;11073;48.586;12.066;2022-11-04T09:07:10;95577.47;;;10.86;73.37
21821;BME280;11073;48.586;12.066;2022-11-04T09:09:39;95576.97;;;10.89;73.19
21821;BME280;11073;48.586;12.066;2022-11-04T09:12:09;95571.03;;;10.92;73.19
21821;BME280;11073;48.586;12.066;2022-11-04T09:14:38;95569.44;;;10.96;73.31
21821;BME280;11073;48.586;12.066;2022-11-04T09:17:06;95576.53;;;11.02;73.19
21821;BME280;11073;48.586;12.066;2022-11-04T09:19:36;95571.38;;;11.06;72.75
21821;BME280;11073;48.586;12.066;2022-11-04T09:22:05;95571.66;;;11.04;72.89
21821;BME280;11073;48.586;12.066;2022-11-04T09:24:34;95568.66;;;11.01;72.83
21821;BME280;11073;48.586;12.066;2022-11-04T09:27:03;95539.06;;;10.89;72.74
21821;BME280;11073;48.586;12.066;2022-11-04T09:29:32;95566.50;;;11.03;72.72
21821;BME280;11073;48.586;12.066;2022-11-04T09:32:03;95565.16;;;11.05;73.01
21821;BME280;11073;48.586;12.066;2022-11-04T09:34:32;95552.44;;;11.06;72.58
21821;BME280;11073;48.586;12.066;2022-11-04T09:37:02;95550.56;;;11.12;72.48
21821;BME280;11073;48.586;12.066;2022-11-04T09:39:31;95543.25;;;11.12;72.43
21821;BME280;11073;48.586;12.066;2022-11-04T09:42:24;95557.59;;;11.13;72.41
21821;BME280;11073;48.586;12.066;2022-11-04T09:45:00;95561.94;;;11.09;72.52
21821;BME280;11073;48.586;12.066;2022-11-04T09:47:52;95562.47;;;11.11;72.08
21821;BME280;11073;48.586;12.066;2022-11-04T09:50:25;95553.00;;;11.13;72.28
21821;BME280;11073;48.586;12.066;2022-11-04T09:53:01;95537.28;;;11.10;71.92
21821;BME280;11073;48.586;12.066;2022-11-04T09:55:37;95543.28;;;11.17;72.13
21821;BME280;11073;48.586;12.066;2022-11-04T09:58:11;95539.50;;;11.18;72.04
21821;BME280;11073;48.586;12.066;2022-11-04T10:00:44;95539.47;;;11.13;71.69
21821;BME280;11073;48.586;12.066;2022-11-04T10:03:29;95550.09;;;11.25;71.92
21821;BME280;11073;48.586;12.066;2022-11-04T10:06:23;95555.00;;;11.33;71.57
21821;BME280;11073;48.586;12.066;2022-11-04T10:09:05;95558.53;;;11.33;71.42
21821;BME280;11073;48.586;12.066;2022-11-04T10:11:41;95547.97;;;11.32;71.09
21821;BME280;11073;48.586;12.066;2022-11-04T10:14:30;95572.38;;;11.42;70.79
21821;BME280;11073;48.586;12.066;2022-11-04T10:17:12;95577.56;;;11.49;71.10
21821;BME280;11073;48.586;12.066;2022-11-04T10:19:55;95570.78;;;11.46;70.21
21821;BME280;11073;48.586;12.066;2022-11-04T10:22:31;95572.44;;;11.52;70.09
21821;BME280;11073;48.586;12.066;2022-11-04T10:25:09;95564.31;;;11.63;70.34
21821;BME280;11073;48.586;12.066;2022-11-04T10:27:42;95554.53;;;11.56;69.68
21821;BME280;11073;48.586;12.066;2022-11-04T10:30:15;95559.44;;;11.59;69.73
21821;BME280;11073;48.586;12.066;2022-11-04T10:32:53;95560.78;;;11.57;69.23
21821;BME280;11073;48.586;12.066;2022-11-04T10:35:30;95557.25;;;11.56;69.24
21821;BME280;11073;48.586;12.066;2022-11-04T10:38:16;95551.81;;;11.51;69.04
21821;BME280;11073;48.586;12.066;2022-11-04T10:40:48;95556.41;;;11.46;69.03
21821;BME280;11073;48.586;12.066;2022-11-04T10:43:25;95555.03;;;11.43;68.91
21821;BME280;11073;48.586;12.066;2022-11-04T10:46:05;95547.19;;;11.42;68.89
21821;BME280;11073;48.586;12.066;2022-11-04T10:48:40;95546.91;;;11.43;68.69
21821;BME280;11073;48.586;12.066;2022-11-04T10:51:11;95532.28;;;11.39;68.70
21821;BME280;11073;48.586;12.066;2022-11-04T10:53:39;95527.63;;;11.35;68.46
21821;BME280;11073;48.586;12.066;2022-11-04T10:56:17;95531.66;;;11.27;68.40
21821;BME280;11073;48.586;12.066;2022-11-04T10:58:48;95526.78;;;11.24;68.63
21821;BME280;11073;48.586;12.066;2022-11-04T11:01:28;95532.47;;;11.27;68.77
21821;BME280;11073;48.586;12.066;2022-11-04T11:03:58;95530.06;;;11.31;68.76
21821;BME280;11073;48.586;12.066;2022-11-04T11:06:29;95521.91;;;11.26;68.32
21821;BME280;11073;48.586;12.066;2022-11-04T11:09:11;95521.63;;;11.22;68.59
21821;BME280;11073;48.586;12.066;2022-11-04T11:11:44;95501.00;;;11.11;68.61
21821;BME280;11073;48.586;12.066;2022-11-04T11:14:19;95511.06;;;11.16;68.37
21821;BME280;11073;48.586;12.066;2022-11-04T11:17:17;95512.38;;;11.13;68.27
21821;BME280;11073;48.586;12.066;2022-11-04T11:19:49;95506.38;;;11.06;68.53
21821;BME280;11073;48.586;12.066;2022-11-04T11:22:35;95512.88;;;11.05;68.26
21821;BME280;11073;48.586;12.066;2022-11-04T11:25:13;95521.53;;;11.02;68.73
21821;BME280;11073;48.586;12.066;2022-11-04T11:27:47;95507.97;;;10.97;68.60
21821;BME280;11073;48.586;12.066;2022-11-04T11:30:25;95520.16;;;10.99;68.82
21821;BME280;11073;48.586;12.066;2022-11-04T11:32:59;95515.03;;;11.03;68.72
21821;BME280;11073;48.586;12.066;2022-11-04T11:35:32;95516.94;;;11.02;68.66
21821;BME280;11073;48.586;12.066;2022-11-04T11:38:16;95526.13;;;10.96;68.80
21821;BME280;11073;48.586;12.066;2022-11-04T11:40:46;95525.31;;;10.96;68.85
21821;BME280;11073;48.586;12.066;2022-11-04T11:43:41;95526.63;;;10.88;68.79
21821;BME280;11073;48.586;12.066;2022-11-04T11:46:11;95537.72;;;10.92;69.06
21821;BME280;11073;48.586;12.066;2022-11-04T11:48:41;95545.03;;;10.91;69.01
21821;BME280;11073;48.586;12.066;2022-11-04T11:51:12;95548.06;;;11.00;68.81
21821;BME280;11073;48.586;12.066;2022-11-04T11:53:59;95543.75;;;11.04;68.81
21821;BME280;11073;48.586;12.066;2022-11-04T11:56:32;95543.22;;;11.02;68.74
21821;BME280;11073;48.586;12.066;2022-11-04T11:59:32;95532.66;;;11.05;69.23
21821;BME280;11073;48.586;12.066;2022-11-04T12:02:28;95525.88;;;11.03;69.33
21821;BME280;11073;48.586;12.066;2022-11-04T12:05:00;95517.75;;;11.03;69.00
21821;BME280;11073;48.586;12.066;2022-11-04T12:07:52;95521.28;;;11.03;69.21
21821;BME280;11073;48.586;12.066;2022-11-04T12:10:46;95528.59;;;11.03;69.10
21821;BME280;11073;48.586;12.066;2022-11-04T12:13:22;95529.13;;;11.05;69.25
21821;BME280;11073;48.586;12.066;2022-11-04T12:16:08;95522.88;;;10.94;69.27
21821;BME280;11073;48.586;12.066;2022-11-04T12:18:50;95539.97;;;11.05;69.16
21821;BME280;11073;48.586;12.066;2022-11-04T12:21:26;95539.97;;;11.05;69.23
21821;BME280;11073;48.586;12.066;2022-11-04T12:24:09;95541.31;;;11.08;69.30
21821;BME280;11073;48.586;12.066;2022-11-04T12:26:51;95539.69;;;11.07;69.41
21821;BME280;11073;48.586;12.066;2022-11-04T12:29:35;95542.41;;;11.07;69.22
21821;BME280;11073;48.586;12.066;2022-11-04T12:32:17;95543.75;;;11.04;69.52
21821;BME280;11073;48.586;12.066;2022-11-04T12:34:59;95544.03;;;11.02;69.07
21821;BME280;11073;48.586;12.066;2022-11-04T12:37:39;95546.16;;;11.00;69.51
21821;BME280;11073;48.586;12.066;2022-11-04T12:40:12;95554.28;;;10.95;69.19
21821;BME280;11073;48.586;12.066;2022-11-04T12:43:01;95554.56;;;10.99;69.53
21821;BME280;11073;48.586;12.066;2022-11-04T12:45:44;95551.56;;;11.00;69.59
21821;BME280;11073;48.586;12.066;2022-11-04T12:48:30;95550.25;;;11.03;69.57
21821;BME280;11073;48.586;12.066;2022-11-04T12:51:06;95550.81;;;11.05;69.69
21821;BME280;11073;48.586;12.066;2022-11-04T12:53:48;95545.69;;;11.09;69.54
21821;BME280;11073;48.586;12.066;2022-11-04T12:56:23;95540.00;;;11.10;69.68
21821;BME280;11073;48.586;12.066;2022-11-04T12:59:20;95541.91;;;11.10;69.60
21821;BME280;11073;48.586;12.066;2022-11-04T13:01:55;95544.59;;;11.10;69.93
21821;BME280;11073;48.586;12.066;2022-11-04T13:04:30;95547.59;;;11.13;69.90
21821;BME280;11073;48.586;12.066;2022-11-04T13:07:03;95553.03;;;11.18;69.79
21821;BME280;11073;48.586;12.066;2022-11-04T13:09:37;95571.72;;;11.20;69.79
21821;BME280;11073;48.586;12.066;2022-11-04T13:12:10;95577.16;;;11.20;69.95
21821;BME280;11073;48.586;12.066;2022-11-04T13:14:45;95580.97;;;11.24;69.83
21821;BME280;11073;48.586;12.066;2022-11-04T13:17:17;95587.22;;;11.29;69.93
21821;BME280;11073;48.586;12.066;2022-11-04T13:19:50;95602.13;;;11.27;70.23
21821;BME280;11073;48.586;12.066;2022-11-04T13:22:26;95601.56;;;11.25;70.15
21821;BME280;11073;48.586;12.066;2022-11-04T13:24:59;95598.31;;;11.23;70.24
21821;BME280;11073;48.586;12.066;2022-11-04T13:27:34;95601.31;;;11.26;70.17